createdAt,value
2018-12-21T00:02:24.123Z,22.13
2018-12-21T00:04:51.603Z,22.03
2018-12-21T00:07:19.101Z,22.53
2018-12-21T00:09:46.594Z,21.57
2018-12-21T00:12:14.082Z,21.80
2018-12-21T00:14:41.580Z,21.43
2018-12-21T00:17:09.072Z,21.07
2018-12-21T00:19:36.560Z,21.43
2018-12-21T00:22:04.328Z,21.47
2018-12-21T00:24:31.840Z,22.37
2018-12-21T00:26:59.364Z,20.33
2018-12-21T00:29:26.920Z,21.63
2018-12-21T00:32:00.057Z,21.13
2018-12-21T00:34:33.236Z,21.43
2018-12-21T00:37:06.368Z,20.73
2018-12-21T00:39:39.831Z,20.50
2018-12-21T00:42:09.367Z,19.80
2018-12-21T00:44:38.549Z,19.67
2018-12-21T00:47:07.799Z,19.23
2018-12-21T00:49:35.351Z,19.57
2018-12-21T00:52:03.017Z,19.37
2018-12-21T00:54:30.538Z,19.33
2018-12-21T00:56:58.034Z,19.67
2018-12-21T00:59:25.932Z,18.07
2018-12-21T01:01:53.433Z,18.37
2018-12-21T01:04:20.946Z,18.77
2018-12-21T01:06:48.613Z,18.10
2018-12-21T01:09:16.338Z,18.70
2018-12-21T01:11:43.828Z,19.23
2018-12-21T01:14:11.511Z,18.33
2018-12-21T01:16:39.015Z,18.83
2018-12-21T01:19:06.530Z,17.60
2018-12-21T01:21:38.693Z,18.80
2018-12-21T01:24:03.599Z,17.60
2018-12-21T01:26:31.155Z,19.17
2018-12-21T01:28:58.655Z,17.33
2018-12-21T01:31:26.635Z,18.47
2018-12-21T01:33:54.160Z,17.53
2018-12-21T01:36:21.650Z,17.30
2018-12-21T01:38:49.162Z,17.67
2018-12-21T01:41:16.660Z,17.27
2018-12-21T01:43:44.158Z,16.97
2018-12-21T01:46:12.663Z,18.50
2018-12-21T01:48:40.165Z,18.27
2018-12-21T01:51:07.663Z,18.53
2018-12-21T01:53:35.159Z,17.73
2018-12-21T01:56:02.687Z,17.23
2018-12-21T01:58:30.273Z,16.57
2018-12-21T02:00:57.786Z,17.53
2018-12-21T02:03:26.201Z,17.53
2018-12-21T02:05:53.717Z,17.83
2018-12-21T02:08:21.255Z,16.90
2018-12-21T02:10:48.770Z,17.13
2018-12-21T02:13:16.272Z,17.43
2018-12-21T02:15:43.803Z,18.00
2018-12-21T02:18:11.308Z,17.27
2018-12-21T02:20:39.487Z,15.60
2018-12-21T02:23:06.987Z,16.10
2018-12-21T02:25:34.478Z,16.37
2018-12-21T02:28:02.105Z,16.23
2018-12-21T02:30:29.622Z,16.40
2018-12-21T02:32:57.129Z,15.60
2018-12-21T02:35:24.768Z,16.30
2018-12-21T02:37:52.379Z,15.37
2018-12-21T02:40:19.878Z,16.23
2018-12-21T02:42:47.381Z,15.23
2018-12-21T02:45:14.906Z,16.63
2018-12-21T02:47:42.490Z,14.63
2018-12-21T02:50:10.007Z,15.17
2018-12-21T02:52:37.507Z,15.13
2018-12-21T02:55:05.466Z,15.43
2018-12-21T02:57:32.967Z,14.43
2018-12-21T03:00:00.482Z,14.87
2018-12-21T03:02:27.972Z,15.27
2018-12-21T03:04:55.468Z,15.93
2018-12-21T03:07:22.959Z,15.40
2018-12-21T03:09:50.462Z,15.13
2018-12-21T03:12:17.978Z,14.93
2018-12-21T03:14:45.467Z,15.30
2018-12-21T03:17:12.968Z,14.07
2018-12-21T03:19:40.454Z,14.97
2018-12-21T03:22:14.594Z,15.20
2018-12-21T03:24:37.442Z,15.07
2018-12-21T03:27:04.948Z,14.20
2018-12-21T03:29:32.436Z,15.23
2018-12-21T03:32:00.209Z,15.30
2018-12-21T03:34:27.934Z,14.90
2018-12-21T03:36:55.436Z,14.83
2018-12-21T03:39:23.008Z,15.07
2018-12-21T03:41:50.610Z,15.37
2018-12-21T03:44:18.105Z,15.03
2018-12-21T03:46:45.594Z,15.00
2018-12-21T03:49:13.087Z,14.60
2018-12-21T03:51:40.612Z,15.37
2018-12-21T03:54:08.115Z,15.87
2018-12-21T03:56:35.703Z,14.87
2018-12-21T03:59:03.504Z,15.50
2018-12-21T04:01:31.044Z,15.57
2018-12-21T04:03:58.532Z,15.57
2018-12-21T04:06:26.022Z,14.73
2018-12-21T04:08:53.528Z,14.37
2018-12-21T04:11:21.026Z,13.80
2018-12-21T04:13:48.508Z,14.67
2018-12-21T04:16:16.004Z,14.60
2018-12-21T04:18:43.487Z,14.87
2018-12-21T04:21:10.987Z,15.33
2018-12-21T04:23:38.500Z,14.90
2018-12-21T04:26:05.999Z,14.50
2018-12-21T04:28:33.492Z,15.00
2018-12-21T04:31:00.989Z,15.13
2018-12-21T04:33:28.492Z,14.60
2018-12-21T04:35:55.992Z,14.83
2018-12-21T04:38:23.483Z,15.63
2018-12-21T04:40:50.995Z,15.13
2018-12-21T04:43:18.483Z,15.93
2018-12-21T04:45:45.976Z,15.03
2018-12-21T04:48:13.477Z,15.80
2018-12-21T04:50:40.993Z,15.53
2018-12-21T04:53:08.509Z,14.77
2018-12-21T04:55:36.015Z,15.03
2018-12-21T04:58:03.972Z,14.73
2018-12-21T05:00:31.498Z,15.80
2018-12-21T05:02:58.999Z,15.20
2018-12-21T05:05:26.494Z,14.50
2018-12-21T05:07:54.248Z,15.60
2018-12-21T05:10:21.763Z,15.53
2018-12-21T05:12:49.250Z,15.17
2018-12-21T05:15:16.753Z,15.90
2018-12-21T05:17:44.253Z,16.07
2018-12-21T05:20:11.745Z,15.97
2018-12-21T05:22:39.245Z,15.80
2018-12-21T05:25:06.773Z,16.07
2018-12-21T05:27:34.268Z,17.23
2018-12-21T05:30:01.795Z,16.13
2018-12-21T05:32:29.392Z,16.67
2018-12-21T05:34:56.884Z,16.97
2018-12-21T05:37:24.395Z,15.70
2018-12-21T05:39:51.891Z,15.70
2018-12-21T05:42:19.395Z,15.43
2018-12-21T05:44:46.897Z,14.43
2018-12-21T05:47:14.395Z,15.37
2018-12-21T05:49:41.892Z,15.77
2018-12-21T05:52:09.395Z,16.03
2018-12-21T05:54:36.879Z,15.90
2018-12-21T05:57:04.379Z,16.50
2018-12-21T05:59:31.868Z,15.87
2018-12-21T06:01:59.356Z,16.47
2018-12-21T06:04:26.871Z,16.23
2018-12-21T06:06:54.486Z,16.30
2018-12-21T06:09:21.975Z,17.40
2018-12-21T06:11:49.471Z,17.63
2018-12-21T06:14:16.980Z,17.43
2018-12-21T06:16:44.475Z,16.77
2018-12-21T06:19:12.368Z,17.50
2018-12-21T06:21:40.076Z,17.57
2018-12-21T06:24:07.578Z,18.90
2018-12-21T06:26:35.070Z,19.53
2018-12-21T06:29:02.582Z,19.00
2018-12-21T06:31:30.075Z,19.13
2018-12-21T06:33:57.575Z,19.43
2018-12-21T06:36:25.075Z,20.63
2018-12-21T06:38:52.572Z,19.37
2018-12-21T06:41:20.085Z,20.00
2018-12-21T06:43:47.575Z,18.93
2018-12-21T06:46:15.069Z,20.53
2018-12-21T06:48:42.573Z,20.87
2018-12-21T06:51:10.186Z,20.67
2018-12-21T06:53:37.889Z,21.20
2018-12-21T06:56:06.004Z,19.87
2018-12-21T06:58:33.514Z,19.97
2018-12-21T07:01:01.014Z,20.20
2018-12-21T07:03:28.504Z,19.20
2018-12-21T07:05:56.014Z,20.57
2018-12-21T07:08:23.510Z,19.77
2018-12-21T07:10:51.009Z,19.40
2018-12-21T07:13:18.554Z,19.20
2018-12-21T07:15:46.100Z,19.50
2018-12-21T07:18:13.607Z,19.17
2018-12-21T07:20:41.091Z,19.47
2018-12-21T07:23:08.607Z,19.53
2018-12-21T07:25:36.131Z,19.80
2018-12-21T07:28:03.675Z,19.53
2018-12-21T07:30:31.676Z,19.67
2018-12-21T07:32:59.188Z,18.80
2018-12-21T07:35:26.691Z,17.87
2018-12-21T07:37:54.190Z,16.57
2018-12-21T07:40:21.687Z,15.67
2018-12-21T07:42:49.195Z,15.50
2018-12-21T07:45:16.703Z,14.70
2018-12-21T07:47:44.191Z,14.73
2018-12-21T07:50:11.694Z,14.37
2018-12-21T07:52:39.213Z,14.63
2018-12-21T07:55:06.873Z,15.13
2018-12-21T07:57:34.378Z,15.60
2018-12-21T08:00:01.922Z,15.77
2018-12-21T08:02:29.518Z,17.83
2018-12-21T08:04:57.036Z,17.87
2018-12-21T08:07:24.536Z,18.30
2018-12-21T08:09:52.041Z,20.00
2018-12-21T08:12:19.526Z,20.73
2018-12-21T08:14:47.019Z,21.07
2018-12-21T08:17:14.507Z,21.10
2018-12-21T08:19:42.346Z,24.17
2018-12-21T08:22:09.881Z,23.87
2018-12-21T08:24:37.377Z,23.90
2018-12-21T08:27:04.942Z,24.20
2018-12-21T08:29:32.457Z,23.30
2018-12-21T08:31:59.959Z,22.93
2018-12-21T08:34:27.803Z,24.23
2018-12-21T08:36:55.298Z,23.27
2018-12-21T08:39:23.051Z,23.67
2018-12-21T08:41:50.663Z,23.23
2018-12-21T08:44:18.166Z,22.77
2018-12-21T08:46:45.667Z,23.30
2018-12-21T08:49:13.168Z,22.77
2018-12-21T08:51:40.776Z,23.10
2018-12-21T08:54:08.272Z,22.57
2018-12-21T08:56:36.022Z,22.10
2018-12-21T08:59:03.608Z,22.23
2018-12-21T09:01:31.240Z,21.70
2018-12-21T09:03:58.743Z,20.80
2018-12-21T09:06:26.230Z,21.87
2018-12-21T09:08:53.730Z,20.63
2018-12-21T09:11:21.295Z,20.73
2018-12-21T09:13:48.825Z,19.20
2018-12-21T09:16:16.334Z,18.97
2018-12-21T09:18:43.827Z,17.80
2018-12-21T09:21:11.327Z,17.13
2018-12-21T09:23:39.486Z,18.17
2018-12-21T09:26:07.160Z,16.47
2018-12-21T09:28:34.707Z,16.20
2018-12-21T09:31:02.214Z,17.13
2018-12-21T09:33:29.705Z,16.13
2018-12-21T09:35:57.202Z,16.27
2018-12-21T09:38:24.763Z,16.17
2018-12-21T09:40:52.274Z,16.60
2018-12-21T09:43:19.781Z,15.67
2018-12-21T09:45:47.278Z,17.57
2018-12-21T09:48:14.781Z,16.13
2018-12-21T09:50:42.278Z,17.43
2018-12-21T09:53:09.813Z,18.70
2018-12-21T09:55:37.311Z,18.03
2018-12-21T09:58:05.387Z,17.90
2018-12-21T10:00:32.896Z,17.77
2018-12-21T10:03:00.391Z,19.10
2018-12-21T10:05:27.970Z,18.33
2018-12-21T10:07:55.587Z,18.70
2018-12-21T10:10:23.080Z,20.40
2018-12-21T10:12:53.400Z,19.90
2018-12-21T10:15:20.159Z,19.60
2018-12-21T10:17:47.656Z,21.03
2018-12-21T10:20:15.154Z,20.07
2018-12-21T10:22:42.658Z,21.73
2018-12-21T10:25:10.171Z,20.70
2018-12-21T10:27:37.658Z,21.30
2018-12-21T10:30:08.408Z,19.73
2018-12-21T10:32:35.912Z,19.87
2018-12-21T10:35:04.580Z,21.47
2018-12-21T10:37:32.465Z,21.17
2018-12-21T10:39:59.970Z,20.67
2018-12-21T10:42:27.460Z,21.13
2018-12-21T10:44:55.034Z,20.67
2018-12-21T10:47:22.522Z,21.13
2018-12-21T10:49:50.019Z,20.47
2018-12-21T10:52:17.516Z,21.33
2018-12-21T10:54:45.031Z,21.50
2018-12-21T10:57:12.527Z,21.60
2018-12-21T10:59:43.454Z,21.47
2018-12-21T11:02:09.535Z,22.27
2018-12-21T11:04:37.028Z,22.80
2018-12-21T11:07:04.536Z,21.80
2018-12-21T11:09:32.031Z,22.03
2018-12-21T11:11:59.536Z,22.00
2018-12-21T11:14:27.044Z,21.03
2018-12-21T11:16:54.540Z,22.60
2018-12-21T11:19:22.144Z,21.77
2018-12-21T11:21:49.858Z,21.73
2018-12-21T11:24:17.583Z,22.03
2018-12-21T11:26:45.080Z,22.50
2018-12-21T11:29:12.593Z,21.80
2018-12-21T11:31:40.098Z,23.13
2018-12-21T11:34:07.820Z,23.27
2018-12-21T11:36:35.373Z,22.70
2018-12-21T11:39:03.353Z,23.27
2018-12-21T11:41:30.912Z,22.03
2018-12-21T11:43:58.425Z,22.03
2018-12-21T11:46:25.935Z,23.13
2018-12-21T11:48:53.832Z,22.97
2018-12-21T11:51:21.469Z,20.00
2018-12-21T11:53:48.972Z,20.37
2018-12-21T11:56:16.479Z,18.00
2018-12-21T11:58:43.978Z,17.90
2018-12-21T12:01:11.474Z,17.80
2018-12-21T12:03:38.995Z,15.53
2018-12-21T12:06:06.960Z,15.23
2018-12-21T12:08:34.475Z,16.00
2018-12-21T12:11:01.959Z,17.00
2018-12-21T12:13:29.667Z,18.10
2018-12-21T12:15:57.210Z,18.13
2018-12-21T12:18:24.706Z,18.53
2018-12-21T12:20:52.207Z,19.10
2018-12-21T12:23:19.720Z,19.83
2018-12-21T12:25:47.217Z,20.17
2018-12-21T12:28:14.709Z,20.77
2018-12-21T12:30:42.412Z,20.13
2018-12-21T12:33:09.929Z,19.97
2018-12-21T12:35:37.420Z,20.70
2018-12-21T12:38:04.928Z,19.47
2018-12-21T12:40:32.542Z,17.87
2018-12-21T12:43:00.244Z,18.93
2018-12-21T12:45:27.732Z,19.83
2018-12-21T12:47:55.244Z,19.03
2018-12-21T12:50:22.945Z,18.83
2018-12-21T12:52:50.603Z,18.17
2018-12-21T12:55:18.740Z,17.57
2018-12-21T12:57:46.232Z,17.43
2018-12-21T13:00:13.955Z,17.90
2018-12-21T13:02:41.475Z,16.30
2018-12-21T13:05:09.326Z,16.27
2018-12-21T13:07:36.832Z,15.33
2018-12-21T13:10:08.227Z,15.93
2018-12-21T13:12:35.711Z,15.87
2018-12-21T13:15:04.659Z,15.67
2018-12-21T13:17:32.161Z,15.67
2018-12-21T13:19:59.663Z,16.07
2018-12-21T13:22:27.272Z,15.83
2018-12-21T13:24:54.771Z,16.30
2018-12-21T13:27:22.319Z,15.57
2018-12-21T13:29:49.811Z,15.83
2018-12-21T13:32:17.316Z,16.17
2018-12-21T13:34:44.803Z,15.33
2018-12-21T13:37:12.311Z,14.97
2018-12-21T13:39:39.811Z,15.27
2018-12-21T13:42:07.783Z,15.40
2018-12-21T13:44:35.413Z,15.67
2018-12-21T13:47:02.901Z,15.47
2018-12-21T13:49:30.400Z,15.40
2018-12-21T13:51:57.901Z,14.97
2018-12-21T13:54:25.405Z,14.90
2018-12-21T13:56:52.905Z,15.03
2018-12-21T13:59:20.400Z,15.53
2018-12-21T14:01:47.907Z,14.00
2018-12-21T14:04:16.188Z,14.80
2018-12-21T14:06:43.717Z,14.00
2018-12-21T14:09:11.303Z,15.00
2018-12-21T14:11:38.897Z,15.00
2018-12-21T14:14:06.404Z,13.17
2018-12-21T14:16:34.151Z,14.63
2018-12-21T14:19:01.659Z,14.13
2018-12-21T14:21:29.227Z,14.43
2018-12-21T14:23:56.743Z,13.60
2018-12-21T14:26:24.348Z,13.83
2018-12-21T14:28:51.863Z,13.43
2018-12-21T14:31:19.367Z,13.60
2018-12-21T14:33:46.893Z,13.80
2018-12-21T14:36:14.506Z,13.60
2018-12-21T14:38:41.995Z,14.47
2018-12-21T14:41:09.493Z,13.83
2018-12-21T14:43:36.988Z,13.80
2018-12-21T14:46:04.641Z,14.23
2018-12-21T14:48:32.162Z,15.20
2018-12-21T14:50:59.659Z,14.90
2018-12-21T14:53:27.943Z,15.20
2018-12-21T14:55:55.937Z,16.33
2018-12-21T14:58:23.445Z,15.97
2018-12-21T15:00:50.948Z,16.33
2018-12-21T15:03:18.453Z,16.30
2018-12-21T15:05:46.323Z,16.70
2018-12-21T15:08:13.824Z,16.03
2018-12-21T15:10:41.325Z,16.67
2018-12-21T15:13:08.828Z,15.70
2018-12-21T15:15:36.330Z,16.03
2018-12-21T15:18:03.973Z,16.30
2018-12-21T15:20:31.502Z,15.67
2018-12-21T15:22:59.099Z,15.27
2018-12-21T15:25:26.593Z,14.00
2018-12-21T15:27:54.083Z,14.47
2018-12-21T15:30:21.578Z,13.00
2018-12-21T15:32:49.224Z,14.10
2018-12-21T15:35:16.831Z,15.17
2018-12-21T15:37:44.464Z,16.10
2018-12-21T15:40:12.036Z,16.47
2018-12-21T15:42:39.548Z,14.73
2018-12-21T15:45:07.497Z,14.83
2018-12-21T15:47:35.032Z,14.93
2018-12-21T15:50:02.978Z,15.47
2018-12-21T15:52:32.320Z,14.93
2018-12-21T15:55:00.008Z,15.60
2018-12-21T15:57:27.520Z,13.77
2018-12-21T15:59:55.127Z,14.00
2018-12-21T16:02:23.816Z,15.33
2018-12-21T16:04:51.649Z,14.43
2018-12-21T16:07:19.164Z,13.23
2018-12-21T16:09:46.849Z,12.97
2018-12-21T16:12:14.354Z,12.63
2018-12-21T16:14:42.197Z,12.43
2018-12-21T16:17:09.870Z,11.90
2018-12-21T16:19:37.377Z,12.37
2018-12-21T16:22:04.901Z,13.33
2018-12-21T16:24:32.402Z,12.07
2018-12-21T16:26:59.914Z,12.60
2018-12-21T16:29:28.259Z,12.43
2018-12-21T16:31:55.769Z,12.77
2018-12-21T16:34:23.275Z,12.37
2018-12-21T16:36:50.801Z,12.57
2018-12-21T16:39:18.728Z,13.17
2018-12-21T16:41:46.315Z,14.23
2018-12-21T16:44:13.824Z,14.17
2018-12-21T16:46:41.347Z,13.63
2018-12-21T16:49:09.007Z,13.37
2018-12-21T16:51:36.723Z,13.70
2018-12-21T16:54:04.328Z,13.00
2018-12-21T16:56:31.943Z,13.00
2018-12-21T16:58:59.480Z,12.13
2018-12-21T17:01:27.067Z,11.27
2018-12-21T17:03:54.572Z,11.27
2018-12-21T17:06:22.081Z,11.50
2018-12-21T17:08:49.631Z,10.27
2018-12-21T17:11:17.135Z,10.40
2018-12-21T17:13:44.706Z,11.07
2018-12-21T17:16:12.205Z,9.97
2018-12-21T17:18:39.817Z,9.80
2018-12-21T17:21:07.315Z,9.97
2018-12-21T17:23:34.812Z,9.47
2018-12-21T17:26:02.305Z,10.33
2018-12-21T17:28:29.800Z,9.40
2018-12-21T17:30:57.291Z,9.83
2018-12-21T17:33:24.787Z,9.67
2018-12-21T17:35:52.279Z,9.63
2018-12-21T17:38:19.787Z,9.77
2018-12-21T17:40:47.360Z,9.77
2018-12-21T17:43:14.909Z,8.80
2018-12-21T17:45:42.693Z,8.80
2018-12-21T17:48:10.694Z,9.13
2018-12-21T17:50:38.255Z,8.30
2018-12-21T17:53:05.784Z,6.97
2018-12-21T17:55:33.409Z,6.60
2018-12-21T17:58:00.925Z,6.80
2018-12-21T18:00:28.462Z,6.50
2018-12-21T18:02:55.972Z,6.97
2018-12-21T18:05:23.504Z,6.30
2018-12-21T18:07:51.016Z,5.77
2018-12-21T18:10:18.560Z,6.33
2018-12-21T18:12:46.049Z,5.40
2018-12-21T18:15:13.547Z,5.90
2018-12-21T18:17:41.031Z,5.23
2018-12-21T18:20:09.845Z,5.30
2018-12-21T18:22:37.389Z,5.37
2018-12-21T18:25:08.833Z,4.17
2018-12-21T18:27:36.375Z,4.90
2018-12-21T18:30:09.672Z,4.60
2018-12-21T18:32:37.364Z,4.70
2018-12-21T18:35:06.908Z,4.30
2018-12-21T18:37:34.683Z,4.67
2018-12-21T18:40:02.831Z,4.23
2018-12-21T18:42:30.334Z,4.40
2018-12-21T18:44:57.825Z,4.30
2018-12-21T18:47:25.307Z,4.30
2018-12-21T18:49:52.846Z,4.20
2018-12-21T18:52:20.352Z,4.27
2018-12-21T18:54:47.834Z,4.03
2018-12-21T18:57:15.344Z,4.00
2018-12-21T18:59:42.849Z,4.20
2018-12-21T19:02:11.149Z,4.13
2018-12-21T19:04:38.648Z,3.73
2018-12-21T19:07:06.155Z,4.00
2018-12-21T19:09:33.640Z,4.23
2018-12-21T19:12:01.164Z,3.77
2018-12-21T19:14:28.660Z,3.67
2018-12-21T19:16:56.187Z,3.90
2018-12-21T19:19:23.773Z,4.03
2018-12-21T19:21:51.274Z,4.20
2018-12-21T19:24:18.784Z,4.30
2018-12-21T19:26:46.286Z,4.20
2018-12-21T19:29:13.773Z,4.17
2018-12-21T19:31:41.272Z,4.67
2018-12-21T19:34:08.788Z,4.57
2018-12-21T19:36:36.273Z,4.63
2018-12-21T19:39:05.924Z,4.33
2018-12-21T19:41:33.488Z,4.57
2018-12-21T19:44:00.982Z,4.73
2018-12-21T19:46:28.474Z,4.80
2018-12-21T19:48:55.970Z,4.60
2018-12-21T19:51:23.478Z,4.83
2018-12-21T19:53:51.047Z,4.50
2018-12-21T19:56:19.505Z,4.53
2018-12-21T19:58:46.996Z,4.30
2018-12-21T20:01:14.564Z,4.43
2018-12-21T20:03:42.113Z,4.60
2018-12-21T20:06:09.640Z,4.43
2018-12-21T20:08:37.115Z,4.07
2018-12-21T20:11:04.768Z,4.37
2018-12-21T20:13:34.442Z,4.20
2018-12-21T20:16:01.961Z,4.27
2018-12-21T20:18:29.660Z,4.10
2018-12-21T20:20:57.423Z,3.97
2018-12-21T20:23:24.909Z,3.93
2018-12-21T20:25:52.402Z,4.30
2018-12-21T20:28:20.344Z,4.00
2018-12-21T20:30:47.822Z,3.80
2018-12-21T20:33:15.331Z,4.30
2018-12-21T20:35:42.969Z,4.20
2018-12-21T20:38:11.458Z,3.87
2018-12-21T20:40:38.954Z,3.57
2018-12-21T20:43:06.459Z,3.50
2018-12-21T20:45:34.111Z,3.70
2018-12-21T20:48:01.600Z,4.00
2018-12-21T20:50:29.144Z,3.47
2018-12-21T20:52:56.669Z,3.30
2018-12-21T20:55:24.173Z,3.50
2018-12-21T20:57:52.261Z,3.20
2018-12-21T21:00:19.746Z,3.43
2018-12-21T21:02:47.264Z,3.03
2018-12-21T21:05:14.875Z,3.43
2018-12-21T21:07:42.409Z,3.20
2018-12-21T21:10:12.170Z,3.03
2018-12-21T21:12:39.852Z,2.87
2018-12-21T21:15:10.840Z,2.97
2018-12-21T21:17:38.708Z,2.83
2018-12-21T21:20:12.212Z,2.87
2018-12-21T21:22:39.924Z,2.40
2018-12-21T21:25:07.511Z,2.80
2018-12-21T21:27:35.028Z,3.00
2018-12-21T21:30:03.888Z,2.83
2018-12-21T21:32:31.489Z,3.10
2018-12-21T21:34:59.003Z,3.03
2018-12-21T21:37:26.518Z,2.60
2018-12-21T21:39:54.004Z,2.80
2018-12-21T21:42:21.788Z,2.87
2018-12-21T21:44:50.553Z,2.70
2018-12-21T21:47:18.227Z,2.70
2018-12-21T21:49:45.987Z,2.70
2018-12-21T21:52:13.476Z,2.73
2018-12-21T21:54:40.985Z,2.60
2018-12-21T21:57:08.839Z,2.43
2018-12-21T21:59:36.370Z,2.37
2018-12-21T22:02:04.174Z,2.70
2018-12-21T22:04:31.721Z,2.70
2018-12-21T22:06:59.318Z,3.07
2018-12-21T22:09:27.078Z,2.93
2018-12-21T22:11:54.559Z,2.50
2018-12-21T22:14:22.183Z,2.70
2018-12-21T22:16:50.663Z,3.10
2018-12-21T22:19:18.674Z,2.97
2018-12-21T22:21:46.253Z,2.60
2018-12-21T22:24:13.891Z,3.03
2018-12-21T22:26:41.414Z,2.40
2018-12-21T22:29:09.465Z,2.53
2018-12-21T22:31:36.980Z,2.87
2018-12-21T22:34:04.579Z,2.30
2018-12-21T22:36:32.104Z,2.37
2018-12-21T22:38:59.671Z,2.20
2018-12-21T22:41:27.152Z,2.50
2018-12-21T22:43:55.356Z,1.93
2018-12-21T22:46:23.068Z,2.20
2018-12-21T22:48:50.579Z,2.30
2018-12-21T22:51:18.081Z,1.63
2018-12-21T22:53:45.590Z,1.90
2018-12-21T22:56:13.271Z,2.03
2018-12-21T22:58:40.867Z,2.10
2018-12-21T23:01:08.638Z,2.00
2018-12-21T23:03:36.146Z,2.20
2018-12-21T23:06:04.337Z,2.20
2018-12-21T23:08:32.036Z,2.40
2018-12-21T23:10:59.692Z,2.23
2018-12-21T23:13:27.403Z,1.93
2018-12-21T23:15:55.670Z,1.97
2018-12-21T23:18:23.282Z,2.07
2018-12-21T23:20:51.817Z,2.13
2018-12-21T23:23:19.419Z,2.00
2018-12-21T23:25:46.914Z,2.00
2018-12-21T23:28:14.590Z,2.00
2018-12-21T23:30:42.084Z,2.00
2018-12-21T23:33:09.622Z,2.30
2018-12-21T23:35:37.119Z,1.83
2018-12-21T23:38:04.630Z,1.80
2018-12-21T23:40:32.137Z,2.10
2018-12-21T23:42:59.886Z,2.10
2018-12-21T23:45:27.396Z,1.80
2018-12-21T23:47:55.013Z,2.00
2018-12-21T23:50:22.606Z,2.00
2018-12-21T23:52:50.234Z,1.87
2018-12-21T23:55:17.895Z,2.10
2018-12-21T23:57:45.559Z,2.10
